sensor_id;sensor_type;location;lat;lon;timestamp;temperature;humidity
2751;DHT22;1383;48.362;10.908;2023-06-24T00:00:13;19.50;47.00
2751;DHT22;1383;48.362;10.908;2023-06-24T00:02:41;19.50;47.40
2751;DHT22;1383;48.362;10.908;2023-06-24T00:05:24;19.50;47.40
2751;DHT22;1383;48.362;10.908;2023-06-24T00:07:51;19.40;47.60
2751;DHT22;1383;48.362;10.908;2023-06-24T00:10:18;19.40;48.50
2751;DHT22;1383;48.362;10.908;2023-06-24T00:12:45;19.30;48.30
2751;DHT22;1383;48.362;10.908;2023-06-24T00:15:12;19.30;48.70
2751;DHT22;1383;48.362;10.908;2023-06-24T00:17:40;19.30;49.30
2751;DHT22;1383;48.362;10.908;2023-06-24T00:20:09;19.30;49.00
2751;DHT22;1383;48.362;10.908;2023-06-24T00:22:40;19.40;49.00
2751;DHT22;1383;48.362;10.908;2023-06-24T00:25:11;19.40;49.00
2751;DHT22;1383;48.362;10.908;2023-06-24T00:27:38;19.40;48.60
2751;DHT22;1383;48.362;10.908;2023-06-24T00:30:06;19.40;48.30
2751;DHT22;1383;48.362;10.908;2023-06-24T00:32:37;19.40;47.80
2751;DHT22;1383;48.362;10.908;2023-06-24T00:35:05;19.30;47.70
2751;DHT22;1383;48.362;10.908;2023-06-24T00:37:32;19.30;47.70
2751;DHT22;1383;48.362;10.908;2023-06-24T00:39:59;19.30;47.70
2751;DHT22;1383;48.362;10.908;2023-06-24T00:42:26;19.40;47.40
2751;DHT22;1383;48.362;10.908;2023-06-24T00:44:54;19.40;47.30
2751;DHT22;1383;48.362;10.908;2023-06-24T00:47:21;19.40;46.90
2751;DHT22;1383;48.362;10.908;2023-06-24T00:49:48;19.40;46.70
2751;DHT22;1383;48.362;10.908;2023-06-24T00:52:15;19.50;47.00
2751;DHT22;1383;48.362;10.908;2023-06-24T00:54:44;19.50;47.50
2751;DHT22;1383;48.362;10.908;2023-06-24T00:57:12;19.40;47.80
2751;DHT22;1383;48.362;10.908;2023-06-24T00:59:40;19.40;47.80
2751;DHT22;1383;48.362;10.908;2023-06-24T01:02:10;19.50;48.40
2751;DHT22;1383;48.362;10.908;2023-06-24T01:04:38;19.50;48.30
2751;DHT22;1383;48.362;10.908;2023-06-24T01:07:06;19.40;48.60
2751;DHT22;1383;48.362;10.908;2023-06-24T01:09:34;19.40;49.70
2751;DHT22;1383;48.362;10.908;2023-06-24T01:12:01;19.40;48.90
2751;DHT22;1383;48.362;10.908;2023-06-24T01:14:29;19.40;48.90
2751;DHT22;1383;48.362;10.908;2023-06-24T01:17:03;19.40;49.00
2751;DHT22;1383;48.362;10.908;2023-06-24T01:33:57;19.40;49.30
2751;DHT22;1383;48.362;10.908;2023-06-24T01:36:28;19.40;49.20
2751;DHT22;1383;48.362;10.908;2023-06-24T01:39:01;19.30;49.30
2751;DHT22;1383;48.362;10.908;2023-06-24T01:41:42;19.30;49.50
2751;DHT22;1383;48.362;10.908;2023-06-24T01:44:13;19.30;49.30
2751;DHT22;1383;48.362;10.908;2023-06-24T01:46:42;19.40;49.20
2751;DHT22;1383;48.362;10.908;2023-06-24T01:49:13;19.30;49.20
2751;DHT22;1383;48.362;10.908;2023-06-24T01:51:46;19.30;49.20
2751;DHT22;1383;48.362;10.908;2023-06-24T01:54:15;19.30;49.30
2751;DHT22;1383;48.362;10.908;2023-06-24T01:56:47;19.20;49.30
2751;DHT22;1383;48.362;10.908;2023-06-24T01:59:17;19.20;49.40
2751;DHT22;1383;48.362;10.908;2023-06-24T02:01:44;19.10;49.60
2751;DHT22;1383;48.362;10.908;2023-06-24T02:04:12;19.20;49.70
2751;DHT22;1383;48.362;10.908;2023-06-24T02:06:40;19.20;49.80
2751;DHT22;1383;48.362;10.908;2023-06-24T02:09:09;19.20;49.10
2751;DHT22;1383;48.362;10.908;2023-06-24T02:11:37;19.10;49.00
2751;DHT22;1383;48.362;10.908;2023-06-24T02:14:05;19.00;49.20
2751;DHT22;1383;48.362;10.908;2023-06-24T02:16:33;19.10;49.40
2751;DHT22;1383;48.362;10.908;2023-06-24T02:19:02;19.10;49.10
2751;DHT22;1383;48.362;10.908;2023-06-24T02:21:31;19.10;49.20
2751;DHT22;1383;48.362;10.908;2023-06-24T02:23:59;19.10;48.80
2751;DHT22;1383;48.362;10.908;2023-06-24T02:26:26;19.20;48.70
2751;DHT22;1383;48.362;10.908;2023-06-24T02:28:54;19.20;48.20
2751;DHT22;1383;48.362;10.908;2023-06-24T02:31:22;19.20;48.60
2751;DHT22;1383;48.362;10.908;2023-06-24T02:33:49;19.10;48.50
2751;DHT22;1383;48.362;10.908;2023-06-24T02:36:16;19.10;48.30
2751;DHT22;1383;48.362;10.908;2023-06-24T02:38:43;19.10;48.10
2751;DHT22;1383;48.362;10.908;2023-06-24T02:41:10;19.20;47.90
2751;DHT22;1383;48.362;10.908;2023-06-24T02:43:38;19.20;47.80
2751;DHT22;1383;48.362;10.908;2023-06-24T02:46:05;19.20;47.70
2751;DHT22;1383;48.362;10.908;2023-06-24T02:48:35;19.20;47.80
2751;DHT22;1383;48.362;10.908;2023-06-24T02:51:05;19.20;47.90
2751;DHT22;1383;48.362;10.908;2023-06-24T02:53:33;19.10;48.00
2751;DHT22;1383;48.362;10.908;2023-06-24T02:56:01;19.10;47.70
2751;DHT22;1383;48.362;10.908;2023-06-24T02:58:31;19.00;48.40
2751;DHT22;1383;48.362;10.908;2023-06-24T03:01:02;19.00;48.10
2751;DHT22;1383;48.362;10.908;2023-06-24T03:03:34;18.90;48.20
2751;DHT22;1383;48.362;10.908;2023-06-24T03:06:02;18.90;48.70
2751;DHT22;1383;48.362;10.908;2023-06-24T03:08:29;18.90;48.60
2751;DHT22;1383;48.362;10.908;2023-06-24T03:10:57;18.90;48.30
2751;DHT22;1383;48.362;10.908;2023-06-24T03:13:25;19.00;48.20
2751;DHT22;1383;48.362;10.908;2023-06-24T03:15:52;19.00;48.40
2751;DHT22;1383;48.362;10.908;2023-06-24T03:18:19;19.00;48.30
2751;DHT22;1383;48.362;10.908;2023-06-24T03:20:46;19.00;48.50
2751;DHT22;1383;48.362;10.908;2023-06-24T03:23:13;19.00;48.80
2751;DHT22;1383;48.362;10.908;2023-06-24T03:25:40;18.90;49.30
2751;DHT22;1383;48.362;10.908;2023-06-24T03:28:08;19.00;49.80
2751;DHT22;1383;48.362;10.908;2023-06-24T03:30:34;19.00;49.70
2751;DHT22;1383;48.362;10.908;2023-06-24T03:33:02;19.00;49.70
2751;DHT22;1383;48.362;10.908;2023-06-24T03:35:30;19.00;49.70
2751;DHT22;1383;48.362;10.908;2023-06-24T03:37:59;19.10;49.80
2751;DHT22;1383;48.362;10.908;2023-06-24T03:40:26;19.10;49.60
2751;DHT22;1383;48.362;10.908;2023-06-24T03:42:53;18.90;50.20
2751;DHT22;1383;48.362;10.908;2023-06-24T03:45:20;18.90;50.30
2751;DHT22;1383;48.362;10.908;2023-06-24T03:47:47;18.90;50.50
2751;DHT22;1383;48.362;10.908;2023-06-24T03:50:14;18.90;50.80
2751;DHT22;1383;48.362;10.908;2023-06-24T03:52:41;18.90;50.60
2751;DHT22;1383;48.362;10.908;2023-06-24T03:55:08;18.90;51.10
2751;DHT22;1383;48.362;10.908;2023-06-24T03:57:34;18.90;51.20
2751;DHT22;1383;48.362;10.908;2023-06-24T04:00:01;18.90;51.10
2751;DHT22;1383;48.362;10.908;2023-06-24T04:02:33;18.90;51.10
2751;DHT22;1383;48.362;10.908;2023-06-24T04:04:59;18.80;51.00
2751;DHT22;1383;48.362;10.908;2023-06-24T04:07:26;18.80;50.70
2751;DHT22;1383;48.362;10.908;2023-06-24T04:09:55;18.70;50.60
2751;DHT22;1383;48.362;10.908;2023-06-24T04:12:23;18.70;50.10
2751;DHT22;1383;48.362;10.908;2023-06-24T04:14:50;18.80;49.90
2751;DHT22;1383;48.362;10.908;2023-06-24T04:17:17;18.70;49.80
2751;DHT22;1383;48.362;10.908;2023-06-24T04:19:44;18.80;49.30
2751;DHT22;1383;48.362;10.908;2023-06-24T04:22:11;18.80;49.30
2751;DHT22;1383;48.362;10.908;2023-06-24T04:24:38;18.80;49.70
2751;DHT22;1383;48.362;10.908;2023-06-24T04:27:07;18.80;49.80
2751;DHT22;1383;48.362;10.908;2023-06-24T04:29:34;18.90;49.30
2751;DHT22;1383;48.362;10.908;2023-06-24T04:32:01;18.90;48.80
2751;DHT22;1383;48.362;10.908;2023-06-24T04:34:28;18.90;48.80
2751;DHT22;1383;48.362;10.908;2023-06-24T04:36:55;19.00;48.90
2751;DHT22;1383;48.362;10.908;2023-06-24T04:39:22;19.00;48.70
2751;DHT22;1383;48.362;10.908;2023-06-24T04:41:49;19.00;48.80
2751;DHT22;1383;48.362;10.908;2023-06-24T04:44:16;19.10;48.30
2751;DHT22;1383;48.362;10.908;2023-06-24T04:46:43;19.00;49.30
2751;DHT22;1383;48.362;10.908;2023-06-24T04:49:10;19.00;48.70
2751;DHT22;1383;48.362;10.908;2023-06-24T04:51:37;19.00;48.20
2751;DHT22;1383;48.362;10.908;2023-06-24T04:54:04;19.00;48.30
2751;DHT22;1383;48.362;10.908;2023-06-24T04:56:31;18.90;48.50
2751;DHT22;1383;48.362;10.908;2023-06-24T04:58:58;18.90;48.70
2751;DHT22;1383;48.362;10.908;2023-06-24T05:01:25;18.80;49.10
2751;DHT22;1383;48.362;10.908;2023-06-24T05:03:52;18.80;49.20
2751;DHT22;1383;48.362;10.908;2023-06-24T05:06:19;18.90;49.60
2751;DHT22;1383;48.362;10.908;2023-06-24T05:08:46;19.00;49.50
2751;DHT22;1383;48.362;10.908;2023-06-24T05:11:13;19.00;49.40
2751;DHT22;1383;48.362;10.908;2023-06-24T05:13:40;19.10;48.80
2751;DHT22;1383;48.362;10.908;2023-06-24T05:16:07;19.20;48.50
2751;DHT22;1383;48.362;10.908;2023-06-24T05:18:34;19.30;48.00
2751;DHT22;1383;48.362;10.908;2023-06-24T05:21:01;19.40;47.70
2751;DHT22;1383;48.362;10.908;2023-06-24T05:23:28;19.60;47.10
2751;DHT22;1383;48.362;10.908;2023-06-24T05:25:54;19.90;46.20
2751;DHT22;1383;48.362;10.908;2023-06-24T05:28:21;20.20;45.20
2751;DHT22;1383;48.362;10.908;2023-06-24T05:30:49;20.70;44.40
2751;DHT22;1383;48.362;10.908;2023-06-24T05:33:16;21.00;42.40
2751;DHT22;1383;48.362;10.908;2023-06-24T05:35:43;21.40;41.30
2751;DHT22;1383;48.362;10.908;2023-06-24T05:38:10;21.70;40.50
2751;DHT22;1383;48.362;10.908;2023-06-24T05:40:37;21.90;39.70
2751;DHT22;1383;48.362;10.908;2023-06-24T05:43:04;22.10;39.20
2751;DHT22;1383;48.362;10.908;2023-06-24T05:45:31;22.10;38.40
2751;DHT22;1383;48.362;10.908;2023-06-24T05:47:59;22.00;38.40
2751;DHT22;1383;48.362;10.908;2023-06-24T05:50:26;21.80;38.50
2751;DHT22;1383;48.362;10.908;2023-06-24T05:52:53;21.70;38.00
2751;DHT22;1383;48.362;10.908;2023-06-24T05:55:19;21.60;38.70
2751;DHT22;1383;48.362;10.908;2023-06-24T05:57:46;21.60;38.80
2751;DHT22;1383;48.362;10.908;2023-06-24T06:00:13;21.90;38.10
2751;DHT22;1383;48.362;10.908;2023-06-24T06:02:41;22.10;37.60
2751;DHT22;1383;48.362;10.908;2023-06-24T06:05:08;22.40;37.40
2751;DHT22;1383;48.362;10.908;2023-06-24T06:07:35;22.80;36.30
2751;DHT22;1383;48.362;10.908;2023-06-24T06:10:05;23.30;34.90
2751;DHT22;1383;48.362;10.908;2023-06-24T06:12:33;23.50;34.00
2751;DHT22;1383;48.362;10.908;2023-06-24T06:15:00;23.90;33.10
2751;DHT22;1383;48.362;10.908;2023-06-24T06:17:27;24.30;32.40
2751;DHT22;1383;48.362;10.908;2023-06-24T06:19:54;24.70;31.20
2751;DHT22;1383;48.362;10.908;2023-06-24T06:22:21;24.90;31.20
2751;DHT22;1383;48.362;10.908;2023-06-24T06:24:48;25.20;30.40
2751;DHT22;1383;48.362;10.908;2023-06-24T06:27:14;25.20;29.70
2751;DHT22;1383;48.362;10.908;2023-06-24T06:29:41;25.30;29.70
2751;DHT22;1383;48.362;10.908;2023-06-24T06:32:09;25.50;29.60
2751;DHT22;1383;48.362;10.908;2023-06-24T06:34:36;25.50;29.30
2751;DHT22;1383;48.362;10.908;2023-06-24T06:37:03;25.50;29.00
2751;DHT22;1383;48.362;10.908;2023-06-24T06:39:30;25.60;29.00
2751;DHT22;1383;48.362;10.908;2023-06-24T06:41:58;25.80;28.60
2751;DHT22;1383;48.362;10.908;2023-06-24T06:44:25;25.80;28.20
2751;DHT22;1383;48.362;10.908;2023-06-24T06:46:51;26.00;27.90
2751;DHT22;1383;48.362;10.908;2023-06-24T06:49:18;26.30;27.60
2751;DHT22;1383;48.362;10.908;2023-06-24T06:51:53;26.20;27.40
2751;DHT22;1383;48.362;10.908;2023-06-24T06:54:28;26.50;26.60
2751;DHT22;1383;48.362;10.908;2023-06-24T06:57:08;26.80;25.80
2751;DHT22;1383;48.362;10.908;2023-06-24T06:59:44;27.00;25.20
2751;DHT22;1383;48.362;10.908;2023-06-24T07:02:23;27.00;24.50
2751;DHT22;1383;48.362;10.908;2023-06-24T07:04:52;27.10;23.30
2751;DHT22;1383;48.362;10.908;2023-06-24T07:07:25;27.30;24.00
2751;DHT22;1383;48.362;10.908;2023-06-24T07:09:53;27.30;23.10
2751;DHT22;1383;48.362;10.908;2023-06-24T07:12:20;27.00;22.10
2751;DHT22;1383;48.362;10.908;2023-06-24T07:14:47;27.10;22.00
2751;DHT22;1383;48.362;10.908;2023-06-24T07:17:14;27.30;21.70
2751;DHT22;1383;48.362;10.908;2023-06-24T07:19:41;27.60;20.00
2751;DHT22;1383;48.362;10.908;2023-06-24T07:22:08;27.70;20.00
2751;DHT22;1383;48.362;10.908;2023-06-24T07:24:35;28.10;20.50
2751;DHT22;1383;48.362;10.908;2023-06-24T07:27:02;28.40;20.10
2751;DHT22;1383;48.362;10.908;2023-06-24T07:29:32;28.60;19.80
2751;DHT22;1383;48.362;10.908;2023-06-24T07:32:00;28.70;19.90
2751;DHT22;1383;48.362;10.908;2023-06-24T07:34:29;29.00;19.60
2751;DHT22;1383;48.362;10.908;2023-06-24T07:36:56;28.50;20.90
2751;DHT22;1383;48.362;10.908;2023-06-24T07:39:26;28.20;20.00
2751;DHT22;1383;48.362;10.908;2023-06-24T07:41:53;27.50;20.70
2751;DHT22;1383;48.362;10.908;2023-06-24T07:44:21;27.60;21.50
2751;DHT22;1383;48.362;10.908;2023-06-24T07:46:48;28.30;20.40
2751;DHT22;1383;48.362;10.908;2023-06-24T07:49:18;28.30;20.00
2751;DHT22;1383;48.362;10.908;2023-06-24T07:51:45;28.10;20.80
2751;DHT22;1383;48.362;10.908;2023-06-24T07:54:12;27.70;20.90
2751;DHT22;1383;48.362;10.908;2023-06-24T07:56:39;27.50;21.30
2751;DHT22;1383;48.362;10.908;2023-06-24T07:59:06;27.40;21.90
2751;DHT22;1383;48.362;10.908;2023-06-24T08:01:33;27.30;21.60
2751;DHT22;1383;48.362;10.908;2023-06-24T08:04:03;27.60;21.70
2751;DHT22;1383;48.362;10.908;2023-06-24T08:06:30;27.40;22.10
2751;DHT22;1383;48.362;10.908;2023-06-24T08:08:58;27.50;21.80
2751;DHT22;1383;48.362;10.908;2023-06-24T08:11:25;26.60;22.50
2751;DHT22;1383;48.362;10.908;2023-06-24T08:13:52;26.10;23.40
2751;DHT22;1383;48.362;10.908;2023-06-24T08:16:19;26.10;23.70
2751;DHT22;1383;48.362;10.908;2023-06-24T08:18:47;26.20;24.00
2751;DHT22;1383;48.362;10.908;2023-06-24T08:21:14;25.90;23.60
2751;DHT22;1383;48.362;10.908;2023-06-24T08:23:41;26.10;24.10
2751;DHT22;1383;48.362;10.908;2023-06-24T08:26:08;26.40;23.90
2751;DHT22;1383;48.362;10.908;2023-06-24T08:28:43;26.70;22.90
2751;DHT22;1383;48.362;10.908;2023-06-24T08:31:10;27.30;22.20
2751;DHT22;1383;48.362;10.908;2023-06-24T08:33:37;27.90;21.70
2751;DHT22;1383;48.362;10.908;2023-06-24T08:36:04;28.50;21.10
2751;DHT22;1383;48.362;10.908;2023-06-24T08:38:31;28.80;19.80
2751;DHT22;1383;48.362;10.908;2023-06-24T08:40:58;28.00;20.50
2751;DHT22;1383;48.362;10.908;2023-06-24T08:43:26;28.00;21.40
2751;DHT22;1383;48.362;10.908;2023-06-24T08:45:53;27.80;20.40
2751;DHT22;1383;48.362;10.908;2023-06-24T08:48:20;28.00;20.90
2751;DHT22;1383;48.362;10.908;2023-06-24T08:50:52;27.80;20.70
2751;DHT22;1383;48.362;10.908;2023-06-24T08:53:21;28.00;21.20
2751;DHT22;1383;48.362;10.908;2023-06-24T08:55:49;28.50;20.50
2751;DHT22;1383;48.362;10.908;2023-06-24T08:58:17;28.70;20.00
2751;DHT22;1383;48.362;10.908;2023-06-24T09:00:44;28.40;20.00
2751;DHT22;1383;48.362;10.908;2023-06-24T09:03:11;28.60;20.40
2751;DHT22;1383;48.362;10.908;2023-06-24T09:05:38;28.30;19.60
2751;DHT22;1383;48.362;10.908;2023-06-24T09:08:05;28.10;20.40
2751;DHT22;1383;48.362;10.908;2023-06-24T09:10:36;28.30;20.70
2751;DHT22;1383;48.362;10.908;2023-06-24T09:13:05;28.50;20.70
2751;DHT22;1383;48.362;10.908;2023-06-24T09:15:36;28.90;19.70
2751;DHT22;1383;48.362;10.908;2023-06-24T09:18:04;28.60;20.00
2751;DHT22;1383;48.362;10.908;2023-06-24T09:20:32;29.20;19.50
2751;DHT22;1383;48.362;10.908;2023-06-24T09:23:04;29.40;18.50
2751;DHT22;1383;48.362;10.908;2023-06-24T09:25:38;29.50;18.20
2751;DHT22;1383;48.362;10.908;2023-06-24T09:28:34;29.30;18.00
2751;DHT22;1383;48.362;10.908;2023-06-24T11:22:09;25.80;20.10
2751;DHT22;1383;48.362;10.908;2023-06-24T11:24:36;25.60;20.30
2751;DHT22;1383;48.362;10.908;2023-06-24T11:27:04;25.60;19.90
2751;DHT22;1383;48.362;10.908;2023-06-24T11:29:32;25.60;19.50
2751;DHT22;1383;48.362;10.908;2023-06-24T11:32:01;25.60;19.80
2751;DHT22;1383;48.362;10.908;2023-06-24T11:34:29;25.50;20.00
2751;DHT22;1383;48.362;10.908;2023-06-24T11:36:56;25.20;20.70
2751;DHT22;1383;48.362;10.908;2023-06-24T11:39:25;25.00;22.00
2751;DHT22;1383;48.362;10.908;2023-06-24T11:41:53;24.90;22.10
2751;DHT22;1383;48.362;10.908;2023-06-24T11:44:21;24.80;21.90
2751;DHT22;1383;48.362;10.908;2023-06-24T11:46:50;24.80;22.90
2751;DHT22;1383;48.362;10.908;2023-06-24T11:49:17;24.90;22.20
2751;DHT22;1383;48.362;10.908;2023-06-24T11:51:47;24.90;21.50
2751;DHT22;1383;48.362;10.908;2023-06-24T11:54:16;24.70;21.40
2751;DHT22;1383;48.362;10.908;2023-06-24T11:56:49;24.70;21.00
2751;DHT22;1383;48.362;10.908;2023-06-24T11:59:23;24.80;21.20
2751;DHT22;1383;48.362;10.908;2023-06-24T12:01:53;24.90;21.20
2751;DHT22;1383;48.362;10.908;2023-06-24T12:04:21;24.90;21.90
2751;DHT22;1383;48.362;10.908;2023-06-24T12:06:53;25.00;21.90
2751;DHT22;1383;48.362;10.908;2023-06-24T12:09:21;24.90;20.90
2751;DHT22;1383;48.362;10.908;2023-06-24T12:11:48;24.90;21.80
2751;DHT22;1383;48.362;10.908;2023-06-24T12:14:15;24.60;21.70
2751;DHT22;1383;48.362;10.908;2023-06-24T12:16:42;24.70;22.30
2751;DHT22;1383;48.362;10.908;2023-06-24T12:19:10;24.80;20.50
2751;DHT22;1383;48.362;10.908;2023-06-24T12:21:38;24.80;20.70
2751;DHT22;1383;48.362;10.908;2023-06-24T12:24:05;25.00;20.80
2751;DHT22;1383;48.362;10.908;2023-06-24T12:26:32;24.90;20.60
2751;DHT22;1383;48.362;10.908;2023-06-24T12:28:59;24.70;20.20
2751;DHT22;1383;48.362;10.908;2023-06-24T12:31:27;24.80;20.70
2751;DHT22;1383;48.362;10.908;2023-06-24T12:33:54;24.90;20.80
2751;DHT22;1383;48.362;10.908;2023-06-24T12:36:22;25.10;20.40
2751;DHT22;1383;48.362;10.908;2023-06-24T12:38:49;25.40;20.50
2751;DHT22;1383;48.362;10.908;2023-06-24T12:41:16;25.40;19.80
2751;DHT22;1383;48.362;10.908;2023-06-24T12:43:43;25.30;20.00
2751;DHT22;1383;48.362;10.908;2023-06-24T12:46:10;25.20;20.10
2751;DHT22;1383;48.362;10.908;2023-06-24T12:48:36;24.80;18.40
2751;DHT22;1383;48.362;10.908;2023-06-24T12:51:03;24.80;18.60
2751;DHT22;1383;48.362;10.908;2023-06-24T12:53:30;25.00;19.30
2751;DHT22;1383;48.362;10.908;2023-06-24T12:55:57;25.40;18.60
2751;DHT22;1383;48.362;10.908;2023-06-24T12:58:25;25.50;17.80
2751;DHT22;1383;48.362;10.908;2023-06-24T13:00:53;25.60;18.00
2751;DHT22;1383;48.362;10.908;2023-06-24T13:03:20;25.40;18.00
2751;DHT22;1383;48.362;10.908;2023-06-24T13:05:47;25.40;18.30
2751;DHT22;1383;48.362;10.908;2023-06-24T13:08:14;25.50;18.00
2751;DHT22;1383;48.362;10.908;2023-06-24T13:10:41;25.50;19.20
2751;DHT22;1383;48.362;10.908;2023-06-24T13:13:08;25.40;18.80
2751;DHT22;1383;48.362;10.908;2023-06-24T13:15:35;25.60;18.30
2751;DHT22;1383;48.362;10.908;2023-06-24T13:18:02;25.60;18.70
2751;DHT22;1383;48.362;10.908;2023-06-24T13:20:30;25.40;18.00
2751;DHT22;1383;48.362;10.908;2023-06-24T13:22:57;25.20;18.00
2751;DHT22;1383;48.362;10.908;2023-06-24T13:25:24;25.00;18.40
2751;DHT22;1383;48.362;10.908;2023-06-24T13:27:51;25.00;19.10
2751;DHT22;1383;48.362;10.908;2023-06-24T13:30:18;25.10;18.50
2751;DHT22;1383;48.362;10.908;2023-06-24T13:32:46;25.30;18.80
2751;DHT22;1383;48.362;10.908;2023-06-24T13:35:13;25.40;18.50
2751;DHT22;1383;48.362;10.908;2023-06-24T13:37:40;25.50;18.70
2751;DHT22;1383;48.362;10.908;2023-06-24T13:40:08;25.20;18.50
2751;DHT22;1383;48.362;10.908;2023-06-24T13:42:37;25.20;18.80
2751;DHT22;1383;48.362;10.908;2023-06-24T13:45:05;25.00;18.70
2751;DHT22;1383;48.362;10.908;2023-06-24T13:47:32;24.90;19.00
2751;DHT22;1383;48.362;10.908;2023-06-24T13:49:59;24.90;18.90
2751;DHT22;1383;48.362;10.908;2023-06-24T13:52:26;25.00;19.10
2751;DHT22;1383;48.362;10.908;2023-06-24T13:54:54;25.10;18.50
2751;DHT22;1383;48.362;10.908;2023-06-24T13:57:21;25.10;18.60
2751;DHT22;1383;48.362;10.908;2023-06-24T13:59:49;25.20;18.30
2751;DHT22;1383;48.362;10.908;2023-06-24T14:02:17;25.30;18.20
2751;DHT22;1383;48.362;10.908;2023-06-24T14:04:46;25.30;18.50
2751;DHT22;1383;48.362;10.908;2023-06-24T14:07:13;25.40;18.70
2751;DHT22;1383;48.362;10.908;2023-06-24T14:09:42;25.40;18.90
2751;DHT22;1383;48.362;10.908;2023-06-24T14:12:09;25.50;19.00
2751;DHT22;1383;48.362;10.908;2023-06-24T14:14:37;25.50;18.90
2751;DHT22;1383;48.362;10.908;2023-06-24T14:17:08;25.50;19.60
2751;DHT22;1383;48.362;10.908;2023-06-24T14:19:39;25.50;19.40
2751;DHT22;1383;48.362;10.908;2023-06-24T14:22:07;25.50;19.30
2751;DHT22;1383;48.362;10.908;2023-06-24T14:24:35;25.30;19.40
2751;DHT22;1383;48.362;10.908;2023-06-24T14:27:05;25.30;19.60
2751;DHT22;1383;48.362;10.908;2023-06-24T14:29:32;25.30;19.20
2751;DHT22;1383;48.362;10.908;2023-06-24T14:31:59;25.20;19.60
2751;DHT22;1383;48.362;10.908;2023-06-24T14:34:27;25.20;19.40
2751;DHT22;1383;48.362;10.908;2023-06-24T14:36:56;25.00;19.60
2751;DHT22;1383;48.362;10.908;2023-06-24T14:39:23;24.80;19.90
2751;DHT22;1383;48.362;10.908;2023-06-24T14:41:50;24.80;20.00
2751;DHT22;1383;48.362;10.908;2023-06-24T14:44:17;24.80;20.40
2751;DHT22;1383;48.362;10.908;2023-06-24T14:46:44;24.80;19.90
2751;DHT22;1383;48.362;10.908;2023-06-24T14:49:11;24.70;20.30
2751;DHT22;1383;48.362;10.908;2023-06-24T14:51:38;24.70;20.30
2751;DHT22;1383;48.362;10.908;2023-06-24T14:54:05;24.80;20.30
2751;DHT22;1383;48.362;10.908;2023-06-24T14:56:32;24.90;20.20
2751;DHT22;1383;48.362;10.908;2023-06-24T14:59:00;24.90;20.00
2751;DHT22;1383;48.362;10.908;2023-06-24T15:01:27;25.00;19.90
2751;DHT22;1383;48.362;10.908;2023-06-24T15:03:54;25.10;19.50
2751;DHT22;1383;48.362;10.908;2023-06-24T15:06:21;25.20;19.40
2751;DHT22;1383;48.362;10.908;2023-06-24T15:08:48;25.30;19.50
2751;DHT22;1383;48.362;10.908;2023-06-24T15:11:14;25.30;19.70
2751;DHT22;1383;48.362;10.908;2023-06-24T15:13:41;25.20;19.90
2751;DHT22;1383;48.362;10.908;2023-06-24T15:16:08;25.40;19.50
2751;DHT22;1383;48.362;10.908;2023-06-24T15:18:46;25.40;19.90
2751;DHT22;1383;48.362;10.908;2023-06-24T15:21:14;25.50;19.30
2751;DHT22;1383;48.362;10.908;2023-06-24T15:23:56;25.40;18.60
2751;DHT22;1383;48.362;10.908;2023-06-24T15:26:23;25.40;19.20
2751;DHT22;1383;48.362;10.908;2023-06-24T15:28:51;25.60;19.20
2751;DHT22;1383;48.362;10.908;2023-06-24T15:31:18;25.50;18.80
2751;DHT22;1383;48.362;10.908;2023-06-24T15:33:45;25.30;18.80
2751;DHT22;1383;48.362;10.908;2023-06-24T15:36:12;25.30;18.80
2751;DHT22;1383;48.362;10.908;2023-06-24T15:38:39;25.20;18.80
2751;DHT22;1383;48.362;10.908;2023-06-24T15:41:06;25.10;19.20
2751;DHT22;1383;48.362;10.908;2023-06-24T15:43:34;25.10;19.20
2751;DHT22;1383;48.362;10.908;2023-06-24T15:46:01;25.10;19.10
2751;DHT22;1383;48.362;10.908;2023-06-24T15:48:28;25.00;19.40
2751;DHT22;1383;48.362;10.908;2023-06-24T15:50:55;24.90;19.40
2751;DHT22;1383;48.362;10.908;2023-06-24T15:53:23;24.90;19.60
2751;DHT22;1383;48.362;10.908;2023-06-24T15:55:50;24.90;19.30
2751;DHT22;1383;48.362;10.908;2023-06-24T15:58:17;24.90;20.20
2751;DHT22;1383;48.362;10.908;2023-06-24T16:00:44;25.00;19.50
2751;DHT22;1383;48.362;10.908;2023-06-24T16:03:10;25.20;19.10
2751;DHT22;1383;48.362;10.908;2023-06-24T16:05:37;25.30;19.30
2751;DHT22;1383;48.362;10.908;2023-06-24T16:08:05;25.10;19.20
2751;DHT22;1383;48.362;10.908;2023-06-24T16:10:32;25.20;19.30
2751;DHT22;1383;48.362;10.908;2023-06-24T16:13:00;25.20;18.80
2751;DHT22;1383;48.362;10.908;2023-06-24T16:15:26;25.20;18.10
2751;DHT22;1383;48.362;10.908;2023-06-24T16:17:53;25.40;18.30
2751;DHT22;1383;48.362;10.908;2023-06-24T16:20:20;25.60;18.50
2751;DHT22;1383;48.362;10.908;2023-06-24T16:22:47;25.60;18.50
2751;DHT22;1383;48.362;10.908;2023-06-24T16:25:20;25.60;19.50
2751;DHT22;1383;48.362;10.908;2023-06-24T16:27:47;25.50;18.50
2751;DHT22;1383;48.362;10.908;2023-06-24T16:30:14;25.40;19.10
2751;DHT22;1383;48.362;10.908;2023-06-24T16:32:41;25.30;19.20
2751;DHT22;1383;48.362;10.908;2023-06-24T16:35:08;25.30;19.30
2751;DHT22;1383;48.362;10.908;2023-06-24T16:37:35;25.30;19.30
2751;DHT22;1383;48.362;10.908;2023-06-24T16:40:02;25.30;19.30
2751;DHT22;1383;48.362;10.908;2023-06-24T16:42:29;25.20;19.30
2751;DHT22;1383;48.362;10.908;2023-06-24T16:44:56;25.10;19.20
2751;DHT22;1383;48.362;10.908;2023-06-24T16:47:23;25.00;19.30
2751;DHT22;1383;48.362;10.908;2023-06-24T16:49:52;25.10;19.70
2751;DHT22;1383;48.362;10.908;2023-06-24T16:52:20;25.10;19.90
2751;DHT22;1383;48.362;10.908;2023-06-24T16:54:47;25.00;20.00
2751;DHT22;1383;48.362;10.908;2023-06-24T16:57:14;24.90;19.80
2751;DHT22;1383;48.362;10.908;2023-06-24T16:59:41;24.90;19.60
2751;DHT22;1383;48.362;10.908;2023-06-24T17:02:08;24.80;19.60
2751;DHT22;1383;48.362;10.908;2023-06-24T17:04:35;24.70;20.00
2751;DHT22;1383;48.362;10.908;2023-06-24T17:07:03;24.70;19.80
2751;DHT22;1383;48.362;10.908;2023-06-24T17:09:30;24.80;19.90
2751;DHT22;1383;48.362;10.908;2023-06-24T17:11:57;24.60;19.80
2751;DHT22;1383;48.362;10.908;2023-06-24T17:14:25;24.50;20.30
2751;DHT22;1383;48.362;10.908;2023-06-24T17:16:52;24.50;20.30
2751;DHT22;1383;48.362;10.908;2023-06-24T17:19:19;24.50;20.20
2751;DHT22;1383;48.362;10.908;2023-06-24T17:21:46;24.50;20.20
2751;DHT22;1383;48.362;10.908;2023-06-24T17:24:13;24.60;20.20
2751;DHT22;1383;48.362;10.908;2023-06-24T17:26:40;24.60;20.40
2751;DHT22;1383;48.362;10.908;2023-06-24T17:29:07;24.60;20.10
2751;DHT22;1383;48.362;10.908;2023-06-24T17:31:34;24.60;20.10
2751;DHT22;1383;48.362;10.908;2023-06-24T17:34:01;24.60;20.60
2751;DHT22;1383;48.362;10.908;2023-06-24T17:36:28;24.60;20.60
2751;DHT22;1383;48.362;10.908;2023-06-24T17:38:55;24.40;20.50
2751;DHT22;1383;48.362;10.908;2023-06-24T17:41:23;24.40;20.50
2751;DHT22;1383;48.362;10.908;2023-06-24T17:43:50;24.50;20.80
2751;DHT22;1383;48.362;10.908;2023-06-24T17:46:20;24.40;20.80
2751;DHT22;1383;48.362;10.908;2023-06-24T17:48:47;24.40;21.00
2751;DHT22;1383;48.362;10.908;2023-06-24T17:51:14;24.30;21.10
2751;DHT22;1383;48.362;10.908;2023-06-24T17:53:41;24.40;21.20